Time;durP1;ratioP1;P1;durP2;ratioP2;P2;SDS_P1;SDS_P2;PMS_P1;PMS_P2;Temp;Humidity;BMP_temperature;BMP_pressure;BME280_temperature;BME280_humidity;BME280_pressure;Samples;Min_cycle;Max_cycle;Signal;HPM_P1;HPM_P2
2022/06/01 00:02:36;;;;;;;9.20;3.70;;;23.20;59.20;;;;;;216314;1290;22685;-59
2022/06/01 00:07:40;;;;;;;12.40;4.00;;;23.10;59.00;;;;;;216328;1291;23954;-59
2022/06/01 00:12:44;;;;;;;8.10;3.50;;;23.10;59.30;;;;;;216128;1290;24151;-57
2022/06/01 00:17:48;;;;;;;8.80;3.70;;;23.10;59.20;;;;;;216203;1290;25390;-59
2022/06/01 00:22:52;;;;;;;11.10;4.30;;;23.10;59.40;;;;;;216343;1290;25328;-57
2022/06/01 00:27:55;;;;;;;9.20;3.70;;;23.10;59.00;;;;;;216329;1291;24403;-61
2022/06/01 00:33:00;;;;;;;7.70;3.30;;;23.10;58.80;;;;;;216252;1293;22576;-63
2022/06/01 00:38:04;;;;;;;7.20;3.20;;;23.10;58.70;;;;;;216415;1290;22561;-59
2022/06/01 00:43:40;;;;;;;9.60;4.20;;;23.10;58.80;;;;;;216325;1290;24398;-58
2022/06/01 00:48:50;;;;;;;8.10;3.30;;;23.10;58.90;;;;;;216337;1291;22739;-65
2022/06/01 00:53:55;;;;;;;;;;;23.10;59.00;;;;;;216398;1290;23923;-58
2022/06/01 00:59:05;;;;;;;5.80;2.70;;;23.10;59.00;;;;;;216473;1290;25324;-62
2022/06/01 01:04:10;;;;;;;7.00;3.40;;;23.00;59.20;;;;;;216480;1290;22557;-57
2022/06/01 01:09:14;;;;;;;6.20;3.30;;;23.00;59.00;;;;;;216379;1290;25450;-59
2022/06/01 01:14:21;;;;;;;5.90;3.10;;;23.00;59.20;;;;;;216500;1290;23083;-56
2022/06/01 01:19:33;;;;;;;7.60;3.10;;;23.00;59.20;;;;;;216354;1290;25492;-58
2022/06/01 01:25:15;;;;;;;8.40;3.00;;;23.00;58.40;;;;;;216574;1290;22557;-59
2022/06/01 01:30:50;;;;;;;13.40;4.30;;;23.00;59.10;;;;;;216294;1293;22566;-60
2022/06/01 01:36:01;;;;;;;7.70;3.40;;;23.00;59.20;;;;;;216347;1290;25351;-59
2022/06/01 01:41:09;;;;;;;5.70;2.70;;;23.00;59.40;;;;;;216438;1290;25276;-57
2022/06/01 01:46:13;;;;;;;5.90;2.70;;;23.00;59.10;;;;;;216308;1294;25484;-59
2022/06/01 01:51:22;;;;;;;6.40;3.10;;;23.00;59.00;;;;;;216270;1290;22659;-56
2022/06/01 01:56:54;;;;;;;10.80;3.40;;;23.00;59.50;;;;;;218208;1294;24308;-56
2022/06/01 02:02:12;;;;;;;11.50;3.70;;;23.00;59.00;;;;;;215522;1290;22735;-55
2022/06/01 02:07:23;;;;;;;6.70;3.00;;;23.00;59.00;;;;;;216505;1291;22576;-58
2022/06/01 02:12:42;;;;;;;5.80;2.50;;;23.00;59.10;;;;;;216643;1290;27782;-58
2022/06/01 02:17:52;;;;;;;5.90;2.90;;;22.90;58.80;;;;;;216327;1290;22608;-63
2022/06/01 02:22:56;;;;;;;8.20;3.20;;;22.90;59.00;;;;;;216335;1294;22577;-59
2022/06/01 02:28:00;;;;;;;5.20;2.50;;;22.90;59.10;;;;;;216308;1290;25483;-60
2022/06/01 02:33:08;;;;;;;5.30;2.80;;;22.90;59.30;;;;;;216297;1290;25591;-57
2022/06/01 02:38:38;;;;;;;4.60;2.40;;;22.90;59.10;;;;;;216339;1294;25381;-59
2022/06/01 02:43:50;;;;;;;5.60;2.80;;;22.90;59.60;;;;;;216487;1290;22681;-57
2022/06/01 02:48:55;;;;;;;4.90;2.30;;;22.90;59.30;;;;;;216676;1290;22658;-59
2022/06/01 02:53:59;;;;;;;4.90;2.50;;;22.90;59.30;;;;;;216291;1291;22734;-61
2022/06/01 02:59:04;;;;;;;5.10;2.60;;;22.90;59.40;;;;;;216387;1291;22557;-63
2022/06/01 03:04:08;;;;;;;5.60;2.50;;;22.80;59.20;;;;;;216427;1290;22928;-61
2022/06/01 03:09:11;;;;;;;6.10;2.70;;;22.90;59.20;;;;;;216280;1291;22590;-61
2022/06/01 03:14:16;;;;;;;5.10;2.60;;;22.80;59.50;;;;;;216758;1290;24460;-57
2022/06/01 03:19:19;;;;;;;6.80;2.30;;;22.80;59.20;;;;;;216679;1290;26522;-58
2022/06/01 03:24:23;;;;;;;4.10;2.00;;;22.80;58.90;;;;;;216423;1290;22619;-55
2022/06/01 03:29:26;;;;;;;5.30;2.50;;;22.80;59.90;;;;;;216621;1290;22566;-59
2022/06/01 03:34:31;;;;;;;5.30;2.40;;;22.80;59.30;;;;;;216377;1290;24436;-60
2022/06/01 03:39:35;;;;;;;4.60;2.10;;;22.80;59.40;;;;;;216542;1291;22641;-62
2022/06/01 03:50:03;;;;;;;4.60;2.10;;;22.80;59.50;;;;;;216338;1290;25425;-62
2022/06/01 03:55:08;;;;;;;3.50;2.40;;;22.70;60.00;;;;;;216316;1290;22650;-59
2022/06/01 04:00:15;;;;;;;4.60;2.30;;;22.80;59.30;;;;;;215905;1293;25267;-59
2022/06/01 04:05:21;;;;;;;6.20;1.90;;;22.80;59.40;;;;;;216456;1291;25285;-59
2022/06/01 04:10:25;;;;;;;5.30;2.50;;;22.80;59.30;;;;;;216642;1290;25499;-57
2022/06/01 04:15:33;;;;;;;4.90;2.10;;;22.80;59.60;;;;;;216745;1290;24448;-61
2022/06/01 04:20:37;;;;;;;4.60;2.30;;;22.70;59.40;;;;;;216414;1290;23050;-54
2022/06/01 04:25:41;;;;;;;5.10;2.30;;;22.70;59.30;;;;;;216495;1290;22573;-57
2022/06/01 04:30:46;;;;;;;5.30;2.10;;;22.80;59.30;;;;;;216254;1296;22598;-64
2022/06/01 04:35:50;;;;;;;4.80;2.30;;;22.80;59.30;;;;;;216289;1294;22729;-59
2022/06/01 04:40:54;;;;;;;6.60;2.30;;;22.80;59.40;;;;;;216432;1290;22583;-58
2022/06/01 04:45:58;;;;;;;5.40;2.30;;;22.80;59.50;;;;;;216685;1289;25270;-57
2022/06/01 04:51:03;;;;;;;4.80;2.10;;;22.80;59.50;;;;;;216658;1290;22795;-59
2022/06/01 04:56:06;;;;;;;7.10;2.80;;;22.80;59.50;;;;;;216370;1290;25344;-58
2022/06/01 05:01:13;;;;;;;5.80;2.20;;;22.80;59.00;;;;;;216408;1291;22802;-59
2022/06/01 05:06:19;;;;;;;4.10;2.00;;;22.80;59.50;;;;;;216403;1290;25333;-58
2022/06/01 05:11:23;;;;;;;3.80;2.10;;;22.70;59.60;;;;;;216447;1290;22645;-60
2022/06/01 05:16:27;;;;;;;4.70;2.00;;;22.70;59.60;;;;;;216503;1291;22554;-59
2022/06/01 05:21:32;;;;;;;4.10;1.90;;;22.80;59.80;;;;;;216403;1290;25606;-58
2022/06/01 05:26:37;;;;;;;7.80;2.40;;;22.70;60.00;;;;;;216009;1290;22579;-57
2022/06/01 05:31:44;;;;;;;4.10;1.90;;;22.80;59.70;;;;;;216090;1294;22582;-60
2022/06/01 05:36:47;;;;;;;3.10;1.50;;;22.90;60.00;;;;;;216305;1290;22612;-58
2022/06/01 05:41:53;;;;;;;4.10;2.00;;;22.90;60.00;;;;;;216446;1290;22585;-62
2022/06/01 05:46:59;;;;;;;5.30;2.20;;;22.90;60.30;;;;;;216461;1290;22593;-58
2022/06/01 05:52:04;;;;;;;11.10;2.60;;;22.90;60.30;;;;;;216233;1294;22651;-58
2022/06/01 05:57:08;;;;;;;5.90;1.90;;;22.90;62.80;;;;;;216359;1290;25690;-60
2022/06/01 06:02:11;;;;;;;7.60;2.40;;;23.00;62.80;;;;;;216359;1291;22608;-60
2022/06/01 06:07:18;;;;;;;5.80;2.20;;;23.00;62.00;;;;;;216644;1290;22591;-57
2022/06/01 06:12:24;;;;;;;7.00;2.50;;;23.00;62.80;;;;;;216623;1290;22711;-57
2022/06/01 06:17:29;;;;;;;13.20;2.50;;;23.10;62.10;;;;;;216264;1294;24002;-56
2022/06/01 06:22:37;;;;;;;7.40;1.90;;;23.00;62.70;;;;;;216289;1290;24529;-62
2022/06/01 06:27:42;;;;;;;5.30;2.40;;;23.00;62.40;;;;;;216534;1291;24373;-58
2022/06/01 06:32:46;;;;;;;7.30;2.10;;;23.00;62.70;;;;;;216610;1291;24356;-62
2022/06/01 06:37:50;;;;;;;20.60;2.60;;;23.10;63.20;;;;;;216415;1290;25519;-57
2022/06/01 06:42:54;;;;;;;9.10;2.40;;;23.10;62.70;;;;;;216356;1290;22560;-59
2022/06/01 06:47:57;;;;;;;6.80;2.20;;;23.10;62.90;;;;;;216407;1291;22683;-58
2022/06/01 06:53:04;;;;;;;6.30;2.00;;;23.20;62.70;;;;;;216372;1290;22553;-59
2022/06/01 06:58:09;;;;;;;12.60;2.40;;;23.20;62.90;;;;;;216146;1290;25585;-58
2022/06/01 07:03:13;;;;;;;7.60;2.10;;;23.30;62.80;;;;;;216439;1290;22764;-59
2022/06/01 07:08:18;;;;;;;12.00;2.50;;;23.30;62.60;;;;;;216309;1291;22607;-64
2022/06/01 07:13:22;;;;;;;23.00;2.40;;;23.30;62.50;;;;;;216390;1290;22576;-58
2022/06/01 07:18:29;;;;;;;11.20;2.30;;;23.30;62.30;;;;;;216319;1290;24472;-60
2022/06/01 07:23:39;;;;;;;8.60;1.90;;;23.40;62.00;;;;;;215903;1290;367741;-56
2022/06/01 07:28:50;;;;;;;12.80;2.30;;;23.30;61.90;;;;;;216285;1291;24405;-62
2022/06/01 07:33:54;;;;;;;14.80;2.40;;;23.30;61.30;;;;;;216347;1291;23973;-60
2022/06/01 07:44:24;;;;;;;5.90;2.00;;;23.30;62.20;;;;;;216414;1290;22580;-60
2022/06/01 07:49:28;;;;;;;7.60;1.70;;;23.30;61.20;;;;;;216699;1290;22598;-59
2022/06/01 07:54:54;;;;;;;5.30;1.90;;;23.30;60.70;;;;;;216337;1291;25961;-61
2022/06/01 07:59:59;;;;;;;3.80;1.90;;;23.30;60.80;;;;;;216331;1290;25642;-59
2022/06/01 08:05:18;;;;;;;9.90;2.70;;;23.30;60.60;;;;;;216439;1290;22675;-61
2022/06/01 08:10:23;;;;;;;7.80;2.80;;;23.40;60.50;;;;;;216496;1290;24253;-62
2022/06/01 08:15:28;;;;;;;7.40;3.00;;;23.40;60.30;;;;;;216528;1290;24399;-58
2022/06/01 08:20:35;;;;;;;6.10;1.90;;;23.40;60.00;;;;;;216603;1290;22575;-62
2022/06/01 08:25:41;;;;;;;6.80;2.00;;;23.40;59.80;;;;;;216524;1290;24249;-60
2022/06/01 08:30:45;;;;;;;4.90;1.90;;;23.40;59.70;;;;;;216390;1290;22700;-61
2022/06/01 08:35:52;;;;;;;4.70;1.90;;;23.50;59.50;;;;;;216293;1291;25381;-60
2022/06/01 08:41:04;;;;;;;4.30;2.10;;;23.50;59.20;;;;;;216292;1290;24465;-60
2022/06/01 08:46:10;;;;;;;3.70;1.80;;;23.50;59.30;;;;;;216356;1290;25424;-60
2022/06/01 08:51:17;;;;;;;3.90;1.70;;;23.50;58.60;;;;;;216273;1290;22643;-61
2022/06/01 08:56:33;;;;;;;7.10;2.10;;;23.50;59.10;;;;;;216370;1291;22580;-63
2022/06/01 09:01:52;;;;;;;4.90;1.80;;;23.50;58.90;;;;;;216289;1291;22663;-64
2022/06/01 09:07:13;;;;;;;3.30;1.50;;;23.50;58.80;;;;;;216371;1290;24068;-63
2022/06/01 09:12:24;;;;;;;5.60;2.00;;;23.60;58.90;;;;;;216375;1290;22704;-64
2022/06/01 09:17:40;;;;;;;4.70;1.90;;;23.60;58.50;;;;;;216258;1291;24466;-61
2022/06/01 09:22:45;;;;;;;4.70;2.10;;;23.60;58.30;;;;;;216371;1290;22578;-59
2022/06/01 09:27:53;;;;;;;3.60;1.70;;;23.60;58.00;;;;;;216070;1293;25570;-60
2022/06/01 09:33:23;;;;;;;4.30;1.80;;;23.60;57.80;;;;;;216219;1291;26497;-58
2022/06/01 09:38:49;;;;;;;3.50;1.70;;;23.60;57.30;;;;;;216624;1291;22584;-61
2022/06/01 09:44:04;;;;;;;4.00;1.70;;;23.60;57.60;;;;;;216267;1291;22786;-61
2022/06/01 09:49:18;;;;;;;2.90;1.60;;;23.60;57.50;;;;;;216462;1290;22557;-60
2022/06/01 09:54:22;;;;;;;4.40;1.70;;;23.60;57.10;;;;;;216180;1293;25321;-60
2022/06/01 10:10:38;;;;;;;3.80;1.90;;;23.70;57.10;;;;;;216372;1290;25321;-59
2022/06/01 10:16:02;;;;;;;3.50;1.60;;;23.70;57.20;;;;;;216413;1291;22763;-60
2022/06/01 10:22:10;;;;;;;2.80;1.60;;;23.80;56.70;;;;;;216546;1291;22585;-60
2022/06/01 10:27:34;;;;;;;2.20;1.50;;;23.80;56.60;;;;;;216477;1290;24315;-63
2022/06/01 10:32:53;;;;;;;3.80;1.70;;;23.80;55.70;;;;;;216481;1290;24284;-60
2022/06/01 10:38:38;;;;;;;3.40;1.50;;;23.90;56.00;;;;;;216235;1290;24552;-60
2022/06/01 10:44:19;;;;;;;2.40;1.50;;;23.90;56.00;;;;;;216394;1290;22597;-62
2022/06/01 10:49:59;;;;;;;3.30;1.70;;;23.90;55.80;;;;;;216373;1291;22605;-59
2022/06/01 10:55:39;;;;;;;5.60;1.80;;;23.90;55.40;;;;;;216100;1293;22578;-60
2022/06/01 11:01:15;;;;;;;3.00;1.60;;;23.80;55.50;;;;;;216225;1293;22590;-58
2022/06/01 11:06:51;;;;;;;3.80;1.80;;;23.90;55.40;;;;;;215835;1293;24842;-58
2022/06/01 11:12:04;;;;;;;3.20;1.70;;;23.90;55.50;;;;;;216300;1290;24270;-58
2022/06/01 11:17:33;;;;;;;2.70;1.60;;;23.90;55.30;;;;;;216216;1293;25381;-60
2022/06/01 11:22:48;;;;;;;4.50;1.60;;;23.90;55.60;;;;;;216497;1290;22590;-60
2022/06/01 11:28:27;;;;;;;2.90;1.70;;;23.90;55.20;;;;;;216311;1290;26532;-60
2022/06/01 11:33:39;;;;;;;2.40;1.50;;;23.90;55.20;;;;;;216615;1290;24475;-60
2022/06/01 11:38:52;;;;;;;2.80;1.70;;;23.90;55.10;;;;;;216080;1293;22749;-60
2022/06/01 11:44:15;;;;;;;2.30;1.60;;;23.90;54.80;;;;;;216396;1293;22582;-62
2022/06/01 11:49:59;;;;;;;3.10;1.70;;;23.90;54.80;;;;;;216433;1290;22730;-62
2022/06/01 11:55:06;;;;;;;2.40;1.40;;;23.90;54.90;;;;;;216298;1290;27165;-62
2022/06/01 12:00:19;;;;;;;3.00;1.60;;;23.90;55.20;;;;;;216264;1290;24904;-60
2022/06/01 12:05:32;;;;;;;2.60;1.50;;;23.90;55.00;;;;;;216294;1290;24323;-61
2022/06/01 12:11:04;;;;;;;2.90;1.70;;;23.90;55.20;;;;;;216524;1290;24251;-61
2022/06/01 12:16:19;;;;;;;2.50;1.50;;;23.90;54.90;;;;;;216712;1291;24334;-62
2022/06/01 12:21:44;;;;;;;3.60;1.60;;;23.90;54.80;;;;;;216514;1290;23195;-66
2022/06/01 12:33:00;;;;;;;;;;;23.80;49.90;;;;;;216559;1290;22659;-59
2022/06/01 12:38:19;;;;;;;2.60;1.50;;;23.70;47.20;;;;;;216068;1290;26612;-62
2022/06/01 12:43:24;;;;;;;2.70;1.50;;;23.90;47.70;;;;;;216497;1290;24250;-66
2022/06/01 12:48:28;;;;;;;3.30;1.60;;;23.90;49.60;;;;;;216481;1290;22702;-62
2022/06/01 12:53:44;;;;;;;5.20;1.80;;;24.00;50.70;;;;;;216315;1290;24326;-60
2022/06/01 12:58:51;;;;;;;2.70;1.90;;;24.00;52.40;;;;;;216298;1291;23984;-61
2022/06/01 13:04:00;;;;;;;4.60;1.90;;;24.00;52.70;;;;;;216397;1291;22557;-60
2022/06/01 13:09:10;;;;;;;10.00;1.80;;;24.00;53.80;;;;;;216377;1290;22583;-57
2022/06/01 13:14:23;;;;;;;9.80;2.30;;;24.00;54.90;;;;;;216043;1293;24322;-59
2022/06/01 13:19:38;;;;;;;6.80;3.00;;;24.00;56.00;;;;;;216540;1290;22564;-59
2022/06/01 13:25:05;;;;;;;8.30;2.10;;;23.90;55.00;;;;;;216608;1290;25273;-60
2022/06/01 13:30:14;;;;;;;6.70;2.50;;;23.90;56.70;;;;;;216338;1290;22567;-63
2022/06/01 13:35:44;;;;;;;5.20;2.20;;;23.90;57.10;;;;;;216378;1290;24277;-62
2022/06/01 13:41:04;;;;;;;7.20;1.80;;;24.00;57.60;;;;;;216207;1291;24411;-58
2022/06/01 13:46:15;;;;;;;7.00;1.90;;;23.90;57.10;;;;;;216492;1290;22651;-63
2022/06/01 13:51:24;;;;;;;5.90;2.10;;;23.90;54.90;;;;;;216527;1290;24340;-59
2022/06/01 13:56:42;;;;;;;3.50;1.70;;;23.70;53.10;;;;;;216225;1290;24323;-58
2022/06/01 14:01:57;;;;;;;3.90;1.50;;;23.70;51.40;;;;;;216338;1291;22548;-60
2022/06/01 14:07:26;;;;;;;5.30;1.60;;;23.70;51.00;;;;;;216422;1290;24456;-61
2022/06/01 14:12:31;;;;;;;2.20;1.20;;;23.70;50.70;;;;;;216161;1293;22670;-61
2022/06/01 14:17:42;;;;;;;2.70;1.30;;;23.60;50.20;;;;;;216292;1290;23181;-60
2022/06/01 14:22:46;;;;;;;3.50;1.20;;;23.60;50.40;;;;;;216190;1291;22871;-63
2022/06/01 14:33:14;;;;;;;3.60;1.50;;;23.50;50.10;;;;;;216367;1290;22682;-65
2022/06/01 14:38:20;;;;;;;3.90;1.50;;;23.50;48.80;;;;;;216457;1290;23968;-60
2022/06/01 14:43:29;;;;;;;7.10;1.70;;;23.50;48.80;;;;;;216320;1290;25479;-59
2022/06/01 14:48:34;;;;;;;3.50;1.30;;;23.50;48.70;;;;;;216614;1290;22850;-62
2022/06/01 14:53:41;;;;;;;7.80;1.50;;;23.50;48.90;;;;;;216412;1291;26168;-58
2022/06/01 14:58:45;;;;;;;7.60;1.70;;;23.50;48.90;;;;;;216275;1290;24294;-59
2022/06/01 15:03:50;;;;;;;4.30;1.60;;;23.50;49.50;;;;;;216061;1293;25386;-59
2022/06/01 15:08:54;;;;;;;5.00;1.40;;;23.50;49.40;;;;;;215997;1290;22513;-59
2022/06/01 15:13:58;;;;;;;4.50;1.60;;;23.60;48.40;;;;;;216238;1291;25558;-59
2022/06/01 15:19:02;;;;;;;4.90;1.70;;;23.60;49.10;;;;;;216185;1291;22561;-59
2022/06/01 15:24:11;;;;;;;12.40;2.50;;;23.70;48.80;;;;;;216209;1290;23944;-61
2022/06/01 15:40:12;;;;;;;11.10;1.60;;;24.00;52.30;;;;;;216005;1290;25592;-59
2022/06/01 15:45:19;;;;;;;8.70;1.80;;;24.10;57.80;;;;;;216036;1291;22624;-60
2022/06/01 15:50:26;;;;;;;9.00;2.00;;;24.20;60.70;;;;;;216194;1293;22564;-61
2022/06/01 15:55:31;;;;;;;7.30;2.00;;;24.20;60.40;;;;;;216274;1290;22884;-62
2022/06/01 16:00:37;;;;;;;10.10;2.50;;;24.20;60.40;;;;;;216311;1290;22599;-58
2022/06/01 16:05:43;;;;;;;11.10;1.60;;;24.20;59.90;;;;;;216068;1291;25491;-57
2022/06/01 16:10:47;;;;;;;8.10;2.10;;;24.30;59.50;;;;;;216352;1290;25658;-61
2022/06/01 16:15:52;;;;;;;6.60;2.00;;;24.30;59.00;;;;;;216355;1293;22570;-60
2022/06/01 16:20:56;;;;;;;14.10;2.40;;;24.20;56.60;;;;;;216467;1290;24449;-61
2022/06/01 16:26:00;;;;;;;7.60;2.10;;;24.30;55.20;;;;;;216187;1290;22758;-59
2022/06/01 16:31:05;;;;;;;8.20;2.30;;;24.20;52.60;;;;;;216397;1290;24492;-60
2022/06/01 16:36:09;;;;;;;9.60;2.60;;;23.90;52.10;;;;;;216070;1293;22781;-58
2022/06/01 16:41:16;;;;;;;12.30;2.70;;;23.80;49.70;;;;;;216669;1290;22813;-62
2022/06/01 16:46:21;;;;;;;6.60;1.70;;;23.80;49.50;;;;;;216283;1290;25530;-66
2022/06/01 16:51:34;;;;;;;3.50;1.70;;;23.80;50.00;;;;;;216484;1291;24919;-60
2022/06/01 16:56:39;;;;;;;4.40;1.60;;;23.70;48.40;;;;;;216359;1290;24148;-60
2022/06/01 17:01:42;;;;;;;4.10;1.80;;;23.70;48.50;;;;;;216454;1290;25344;-60
2022/06/01 17:06:47;;;;;;;4.00;1.50;;;23.70;48.90;;;;;;216534;1290;25656;-61
2022/06/01 17:11:50;;;;;;;4.10;2.00;;;23.70;48.60;;;;;;216878;1290;22553;-60
2022/06/01 17:16:54;;;;;;;4.80;1.70;;;23.70;47.60;;;;;;216333;1290;22619;-59
2022/06/01 17:22:01;;;;;;;5.10;1.70;;;23.70;48.00;;;;;;216408;1290;24253;-61
2022/06/01 17:27:11;;;;;;;5.10;1.90;;;23.70;47.00;;;;;;216326;1290;22630;-62
2022/06/01 17:32:22;;;;;;;3.00;1.70;;;23.60;47.40;;;;;;216364;1290;22801;-63
2022/06/01 17:37:31;;;;;;;4.40;1.80;;;23.60;47.00;;;;;;216234;1291;25431;-60
2022/06/01 17:42:40;;;;;;;4.30;1.80;;;23.60;47.60;;;;;;216489;1290;22832;-60
2022/06/01 17:47:44;;;;;;;3.40;1.50;;;23.60;47.20;;;;;;216287;1290;25665;-62
2022/06/01 17:52:50;;;;;;;4.10;1.60;;;23.50;47.20;;;;;;216406;1293;23805;-64
2022/06/01 17:57:58;;;;;;;4.50;1.80;;;23.50;47.50;;;;;;215804;1293;22655;-60
2022/06/01 18:03:03;;;;;;;4.60;1.80;;;23.50;47.60;;;;;;216394;1290;24525;-62
2022/06/01 18:08:13;;;;;;;3.00;1.80;;;23.40;47.30;;;;;;216361;1290;22703;-62
2022/06/01 18:13:19;;;;;;;5.10;1.80;;;23.40;47.30;;;;;;216360;1290;24279;-61
2022/06/01 18:18:25;;;;;;;4.30;1.70;;;23.40;47.60;;;;;;216453;1290;22643;-63
2022/06/01 18:23:29;;;;;;;12.20;2.50;;;23.40;47.70;;;;;;216313;1291;23947;-61
2022/06/01 18:28:35;;;;;;;10.00;2.40;;;23.50;48.80;;;;;;216368;1291;24314;-65
2022/06/01 18:33:48;;;;;;;12.00;2.00;;;23.60;48.80;;;;;;216370;1290;22568;-60
2022/06/01 18:39:25;;;;;;;8.30;2.00;;;23.60;49.00;;;;;;214480;1303;542746;-59
2022/06/01 18:44:33;;;;;;;10.20;2.20;;;23.60;49.40;;;;;;219163;1277;24306;-64
2022/06/01 18:49:39;;;;;;;8.90;2.00;;;23.60;49.60;;;;;;219197;1277;268947;-62
2022/06/01 18:54:44;;;;;;;18.00;2.40;;;23.70;50.90;;;;;;219618;1277;24259;-63
2022/06/01 19:05:24;;;;;;;18.10;2.20;;;23.80;50.80;;;;;;219558;1277;24287;-66
2022/06/01 19:10:28;;;;;;;11.40;2.30;;;23.90;51.50;;;;;;219480;1278;24072;-58
2022/06/01 19:15:37;;;;;;;9.60;2.00;;;23.80;52.30;;;;;;219266;1278;22621;-62
2022/06/01 19:20:46;;;;;;;9.80;2.50;;;23.90;52.60;;;;;;219437;1278;25257;-61
2022/06/01 19:25:56;;;;;;;7.40;2.30;;;23.90;52.50;;;;;;219367;1278;25536;-57
2022/06/01 19:31:11;;;;;;;11.40;1.90;;;23.90;52.40;;;;;;219500;1277;22560;-61
2022/06/01 19:47:19;;;;;;;7.20;1.90;;;23.80;52.90;;;;;;219397;1277;22639;-60
2022/06/01 19:52:25;;;;;;;6.20;2.80;;;23.80;52.50;;;;;;219425;1278;26482;-61
2022/06/01 19:57:35;;;;;;;10.60;2.40;;;23.80;52.30;;;;;;220701;1272;24294;-61
2022/06/01 20:02:47;;;;;;;13.00;2.50;;;23.80;54.20;;;;;;220643;1268;24404;-62
2022/06/01 20:07:57;;;;;;;5.30;2.00;;;23.80;54.60;;;;;;220475;1273;24428;-60
2022/06/01 20:13:13;;;;;;;12.90;2.10;;;23.70;53.60;;;;;;220631;1268;24213;-58
2022/06/01 20:18:20;;;;;;;12.30;2.10;;;23.70;55.00;;;;;;220712;1268;23162;-64
2022/06/01 20:23:26;;;;;;;9.30;1.70;;;23.80;55.00;;;;;;220476;1268;22544;-63
2022/06/01 20:28:32;;;;;;;5.10;1.80;;;23.80;54.50;;;;;;220351;1268;22540;-57
2022/06/01 20:33:36;;;;;;;16.00;2.60;;;23.80;54.30;;;;;;220318;1268;24237;-60
2022/06/01 20:38:39;;;;;;;7.90;1.80;;;23.80;54.10;;;;;;220512;1268;24247;-59
2022/06/01 20:43:43;;;;;;;9.60;1.80;;;23.70;54.20;;;;;;220247;1268;22680;-59
2022/06/01 20:48:47;;;;;;;10.50;2.10;;;23.70;54.30;;;;;;220223;1268;24428;-60
2022/06/01 20:53:51;;;;;;;10.00;2.70;;;23.80;54.30;;;;;;220041;1271;22572;-63
2022/06/01 20:58:56;;;;;;;6.80;1.80;;;23.70;54.30;;;;;;220429;1268;27245;-60
2022/06/01 21:04:03;;;;;;;8.10;2.40;;;23.70;54.30;;;;;;220267;1274;25403;-58
2022/06/01 21:09:10;;;;;;;8.80;2.30;;;23.70;54.60;;;;;;220421;1268;22556;-64
2022/06/01 21:14:15;;;;;;;9.60;2.20;;;23.60;54.30;;;;;;220569;1268;25553;-58
2022/06/01 21:19:21;;;;;;;10.50;2.10;;;23.60;54.60;;;;;;220430;1268;22603;-59
2022/06/01 21:24:27;;;;;;;8.10;2.10;;;23.60;56.80;;;;;;220349;1268;22532;-59
2022/06/01 21:29:32;;;;;;;16.70;2.00;;;23.70;58.30;;;;;;220754;1268;22547;-58
2022/06/01 21:34:38;;;;;;;7.80;2.20;;;23.70;58.10;;;;;;220607;1268;24421;-60
2022/06/01 21:39:46;;;;;;;6.20;1.80;;;23.70;57.80;;;;;;220293;1268;22572;-61
2022/06/01 21:44:59;;;;;;;5.10;1.90;;;23.70;57.60;;;;;;220190;1268;22624;-58
2022/06/01 21:50:15;;;;;;;5.90;2.10;;;23.70;57.80;;;;;;220403;1268;25359;-56
2022/06/01 21:55:22;;;;;;;10.90;1.90;;;23.60;57.80;;;;;;220589;1268;24263;-61
2022/06/01 22:00:33;;;;;;;7.30;2.00;;;23.70;57.60;;;;;;220747;1268;25403;-60
2022/06/01 22:05:38;;;;;;;13.80;2.20;;;23.60;57.00;;;;;;220384;1268;22681;-63
2022/06/01 22:12:11;;;;;;;5.10;1.70;;;23.60;57.50;;;;;;220340;1268;22554;-60
2022/06/01 22:16:11;;;;;;;8.20;2.20;;;23.60;58.40;;;;;;220439;1268;23893;-57
2022/06/01 22:21:18;;;;;;;5.50;2.20;;;23.60;58.60;;;;;;220358;1268;25315;-62
2022/06/01 22:26:27;;;;;;;5.80;1.70;;;23.60;58.30;;;;;;220449;1268;22605;-61
2022/06/01 22:31:40;;;;;;;5.80;1.90;;;23.50;58.50;;;;;;220365;1271;22622;-58
2022/06/01 22:42:18;;;;;;;4.30;2.10;;;23.50;58.30;;;;;;220175;1268;22537;-57
2022/06/01 22:47:32;;;;;;;4.40;1.70;;;23.50;58.30;;;;;;220353;1269;25441;-59
2022/06/01 22:53:01;;;;;;;4.70;2.10;;;23.50;58.30;;;;;;220117;1268;25613;-59
2022/06/01 22:58:05;;;;;;;4.60;1.70;;;23.50;58.20;;;;;;220184;1268;23028;-59
2022/06/01 23:03:13;;;;;;;5.40;1.90;;;23.50;58.00;;;;;;220452;1268;24310;-63
2022/06/01 23:08:20;;;;;;;3.70;1.60;;;23.50;58.10;;;;;;219935;1268;22550;-56
2022/06/01 23:13:24;;;;;;;4.30;1.70;;;23.50;57.90;;;;;;219954;1272;25511;-56
2022/06/01 23:18:28;;;;;;;4.60;1.90;;;23.50;58.80;;;;;;220271;1271;25536;-60
2022/06/01 23:23:36;;;;;;;7.30;2.00;;;23.50;58.00;;;;;;220384;1268;22746;-58
2022/06/01 23:28:43;;;;;;;5.90;2.00;;;23.50;58.10;;;;;;223486;1268;22550;-63
2022/06/01 23:34:06;;;;;;;5.60;1.90;;;23.50;58.20;;;;;;220548;1268;25388;-59
2022/06/01 23:39:30;;;;;;;5.50;1.90;;;23.50;57.90;;;;;;220381;1268;22730;-61
2022/06/01 23:44:44;;;;;;;4.20;2.00;;;23.50;58.50;;;;;;220317;1268;25500;-59
2022/06/01 23:50:13;;;;;;;4.70;1.70;;;23.50;58.50;;;;;;220217;1268;23872;-61
2022/06/01 23:55:52;;;;;;;5.00;2.10;;;23.50;58.80;;;;;;220578;1268;23877;-58
